createdAt,value
2022-11-23T14:14:45.393Z,4.88
2022-11-23T14:18:09.065Z,4.93
2022-11-23T14:21:27.235Z,4.65
2022-11-23T14:24:55.793Z,4.65
2022-11-23T14:28:07.517Z,5.00
2022-11-23T14:31:48.845Z,6.18
2022-11-23T14:35:17.376Z,6.13
2022-11-23T14:38:54.295Z,6.50
2022-11-23T14:42:00.877Z,5.68
2022-11-23T14:45:05.571Z,5.83
2022-11-23T14:48:33.776Z,6.30
2022-11-23T14:51:41.898Z,5.68
2022-11-23T14:54:50.965Z,5.72
2022-11-23T14:58:00.872Z,5.57
2022-11-23T15:01:04.829Z,5.07
2022-11-23T15:04:19.790Z,6.10
2022-11-23T15:07:39.411Z,6.90
2022-11-23T15:10:57.390Z,8.13
2022-11-23T15:14:03.084Z,6.65
2022-11-23T15:17:20.830Z,7.37
2022-11-23T15:20:27.184Z,6.90
2022-11-23T15:23:40.273Z,6.63
2022-11-23T15:26:48.598Z,6.97
2022-11-23T15:30:00.918Z,6.60
2022-11-23T15:33:12.391Z,6.40
2022-11-23T15:36:17.577Z,6.60
2022-11-23T15:39:23.293Z,5.47
2022-11-23T15:42:26.920Z,5.80
2022-11-23T15:45:37.576Z,4.75
2022-11-23T15:48:40.441Z,4.57
2022-11-23T15:51:44.628Z,4.82
2022-11-23T15:54:47.402Z,4.80
2022-11-23T15:57:54.662Z,5.28
2022-11-23T16:01:07.186Z,4.28
2022-11-23T16:04:29.762Z,4.63
2022-11-23T16:07:32.877Z,3.90
2022-11-23T16:10:53.510Z,4.78
2022-11-23T16:14:19.384Z,3.85
2022-11-23T16:17:24.283Z,3.97
2022-11-23T16:20:28.338Z,3.93
2022-11-23T16:23:43.300Z,3.67
2022-11-23T16:26:46.120Z,3.72
2022-11-23T16:29:50.145Z,4.20
2022-11-23T16:32:53.471Z,4.35
2022-11-23T16:35:56.885Z,4.37
2022-11-23T16:39:05.218Z,3.90
2022-11-23T16:42:14.073Z,3.80
2022-11-23T16:45:16.956Z,4.00
2022-11-23T16:48:42.886Z,4.40
2022-11-23T16:51:56.133Z,3.30
2022-11-23T16:54:59.537Z,3.72
2022-11-23T16:58:02.475Z,4.10
2022-11-23T17:01:05.470Z,3.70
2022-11-23T17:04:09.912Z,4.13
2022-11-23T17:07:12.708Z,3.47
2022-11-23T17:10:15.589Z,3.28
2022-11-23T17:13:27.569Z,3.58
2022-11-23T17:16:30.959Z,3.20
2022-11-23T17:19:34.131Z,3.43
2022-11-23T17:22:37.810Z,3.40
2022-11-23T17:25:40.975Z,3.33
2022-11-23T17:28:43.793Z,3.30
2022-11-23T17:31:47.699Z,3.10
2022-11-23T17:34:50.620Z,3.50
2022-11-23T17:37:53.554Z,3.00
2022-11-23T17:40:56.313Z,2.75
2022-11-23T17:44:00.134Z,3.38
2022-11-23T17:47:03.679Z,3.17
2022-11-23T17:50:07.635Z,2.58
2022-11-23T17:53:10.696Z,3.67
2022-11-23T17:56:24.279Z,3.00
2022-11-23T17:59:27.337Z,2.72
2022-11-23T18:02:30.226Z,3.40
2022-11-23T18:05:33.325Z,2.70
2022-11-23T18:08:36.452Z,2.87
2022-11-23T18:11:39.607Z,2.83
2022-11-23T18:14:42.604Z,2.53
2022-11-23T18:17:45.636Z,3.17
2022-11-23T18:20:49.179Z,2.83
2022-11-23T18:23:52.150Z,2.57
2022-11-23T18:26:55.127Z,2.67
2022-11-23T18:29:58.191Z,3.10
2022-11-23T18:33:00.947Z,2.50
2022-11-23T18:36:05.761Z,2.50
2022-11-23T18:39:09.165Z,2.50
